Time;durP1;ratioP1;P1;durP2;ratioP2;P2;SDS_P1;SDS_P2;PMS_P1;PMS_P2;Temp;Humidity;BMP_temperature;BMP_pressure;BME280_temperature;BME280_humidity;BME280_pressure;Samples;Min_cycle;Max_cycle;Signal;HPM_P1;HPM_P2
2022/02/08 00:00:03;;;;;;;61.67;50.20;;;;;;;;;;4979227;28;20075;-78
2022/02/08 00:02:30;;;;;;;55.88;50.05;;;;;;;;;;4986557;28;20046;-77
2022/02/08 00:04:56;;;;;;;52.90;47.75;;;;;;;;;;4969889;28;20024;-78
2022/02/08 00:07:22;;;;;;;57.67;48.88;;;;;;;;;;4975562;28;20022;-80
2022/02/08 00:09:47;;;;;;;53.07;47.57;;;;;;;;;;4992001;28;20091;-79
2022/02/08 00:12:12;;;;;;;53.93;48.23;;;;;;;;;;4974705;28;20027;-78
2022/02/08 00:14:37;;;;;;;52.40;47.30;;;;;;;;;;4987544;28;20046;-79
2022/02/08 00:17:03;;;;;;;53.20;47.77;;;;;;;;;;4971351;28;20023;-81
2022/02/08 00:19:28;;;;;;;54.40;48.80;;;;;;;;;;4985469;28;20042;-81
2022/02/08 00:21:54;;;;;;;55.73;48.00;;;;;;;;;;4976414;28;20015;-80
2022/02/08 00:24:19;;;;;;;53.37;48.23;;;;;;;;;;4976272;28;20396;-80
2022/02/08 00:26:44;;;;;;;52.13;47.03;;;;;;;;;;4978310;28;20042;-80
2022/02/08 00:29:09;;;;;;;54.50;49.00;;;;;;;;;;4976402;28;20095;-79
2022/02/08 00:31:34;;;;;;;56.73;49.27;;;;;;;;;;4975155;28;20027;-79
2022/02/08 00:34:00;;;;;;;53.97;48.57;;;;;;;;;;4973897;28;20046;-77
2022/02/08 00:36:25;;;;;;;56.17;49.10;;;;;;;;;;4979322;28;20023;-79
2022/02/08 00:38:51;;;;;;;52.30;47.23;;;;;;;;;;4994634;28;20076;-80
2022/02/08 00:41:17;;;;;;;55.67;49.15;;;;;;;;;;4973125;28;20576;-80
2022/02/08 00:44:47;;;;;;;56.17;50.10;;;;;;;;;;4974392;28;20019;-80
2022/02/08 00:49:04;;;;;;;52.83;47.77;;;;;;;;;;4978391;28;20039;-78
2022/02/08 00:51:39;;;;;;;52.97;47.78;;;;;;;;;;4988947;28;20492;-78
2022/02/08 00:54:04;;;;;;;52.78;47.40;;;;;;;;;;4977544;28;20014;-80
2022/02/08 00:56:29;;;;;;;53.47;47.80;;;;;;;;;;4976529;28;20030;-79
2022/02/08 00:58:55;;;;;;;53.53;48.20;;;;;;;;;;4975302;28;20121;-78
2022/02/08 01:01:20;;;;;;;53.83;48.50;;;;;;;;;;4978231;28;20061;-81
2022/02/08 01:03:45;;;;;;;52.53;47.53;;;;;;;;;;4972987;28;20030;-80
2022/02/08 01:06:10;;;;;;;53.40;47.80;;;;;;;;;;4972544;28;20027;-80
2022/02/08 01:08:39;;;;;;;54.07;48.20;;;;;;;;;;4978730;28;20052;-80
2022/02/08 01:11:06;;;;;;;54.88;49.28;;;;;;;;;;4975220;28;20027;-80
2022/02/08 01:13:32;;;;;;;54.72;48.83;;;;;;;;;;4973243;28;20023;-80
2022/02/08 01:15:58;;;;;;;52.17;47.03;;;;;;;;;;4976530;28;20472;-78
2022/02/08 01:18:24;;;;;;;54.60;48.83;;;;;;;;;;4974874;28;20057;-80
2022/02/08 01:20:51;;;;;;;55.22;49.15;;;;;;;;;;4975422;28;20023;-79
2022/02/08 01:23:16;;;;;;;;;;;;;;;;;;4975550;28;20113;-81
2022/02/08 01:25:44;;;;;;;52.50;47.28;;;;;;;;;;4976355;28;19965;-81
2022/02/08 01:30:46;;;;;;;53.92;48.38;;;;;;;;;;4974638;28;20134;-79
2022/02/08 01:33:32;;;;;;;53.03;47.78;;;;;;;;;;4980848;28;20026;-78
2022/02/08 01:36:26;;;;;;;53.10;47.92;;;;;;;;;;4983269;28;20026;-79
2022/02/08 01:39:00;;;;;;;55.97;48.72;;;;;;;;;;4983601;28;20046;-80
2022/02/08 01:41:48;;;;;;;53.92;48.33;;;;;;;;;;4982919;28;20046;-78
2022/02/08 01:51:48;;;;;;;66.30;50.22;;;;;;;;;;4976927;28;20019;-78
2022/02/08 01:54:14;;;;;;;60.57;50.80;;;;;;;;;;4977250;28;20614;-78
2022/02/08 01:56:39;;;;;;;56.53;49.07;;;;;;;;;;4993649;28;20098;-78
2022/02/08 01:59:04;;;;;;;53.80;48.17;;;;;;;;;;4975980;28;20022;-79
2022/02/08 02:01:29;;;;;;;62.47;50.33;;;;;;;;;;4971867;28;20022;-78
2022/02/08 02:03:54;;;;;;;54.47;48.77;;;;;;;;;;4972079;28;20086;-79
2022/02/08 02:06:20;;;;;;;53.70;48.20;;;;;;;;;;4996330;28;20027;-79
2022/02/08 02:08:45;;;;;;;54.55;48.85;;;;;;;;;;4979695;28;20054;-78
2022/02/08 02:11:10;;;;;;;68.60;53.43;;;;;;;;;;4983659;23;20114;-78
2022/02/08 02:13:44;;;;;;;59.10;48.90;;;;;;;;;;4965466;28;20026;-78
2022/02/08 02:16:12;;;;;;;55.10;49.28;;;;;;;;;;4957674;28;20035;-78
2022/02/08 02:18:37;;;;;;;55.78;49.83;;;;;;;;;;4958816;28;20486;-79
2022/02/08 02:21:03;;;;;;;56.70;50.53;;;;;;;;;;4954586;28;20028;-79
2022/02/08 02:23:29;;;;;;;;;;;;;;;;;;4953141;28;20031;-78
2022/02/08 02:25:54;;;;;;;61.83;50.00;;;;;;;;;;4958734;28;20283;-78
2022/02/08 02:28:19;;;;;;;60.17;50.27;;;;;;;;;;4943372;28;20079;-79
2022/02/08 02:30:44;;;;;;;68.93;54.50;;;;;;;;;;4951193;29;20094;-79
2022/02/08 02:33:10;;;;;;;69.10;53.77;;;;;;;;;;4958233;28;20040;-78
2022/02/08 02:35:36;;;;;;;57.80;51.42;;;;;;;;;;4964276;29;20046;-79
2022/02/08 02:38:05;;;;;;;57.20;51.23;;;;;;;;;;4962785;28;20027;-78
2022/02/08 02:40:31;;;;;;;65.60;52.70;;;;;;;;;;4960225;28;20760;-78
2022/02/08 02:42:57;;;;;;;65.93;53.17;;;;;;;;;;4946998;28;20032;-78
2022/02/08 02:45:22;;;;;;;63.50;52.83;;;;;;;;;;4961852;28;20027;-79
2022/02/08 02:47:50;;;;;;;57.97;51.77;;;;;;;;;;4950263;28;20023;-78
2022/02/08 02:50:16;;;;;;;58.58;52.22;;;;;;;;;;4949575;28;20050;-79
2022/02/08 02:52:41;;;;;;;66.67;53.43;;;;;;;;;;4952232;28;20030;-79
2022/02/08 02:55:07;;;;;;;57.43;51.57;;;;;;;;;;4956341;28;20019;-79
2022/02/08 02:57:32;;;;;;;60.40;52.23;;;;;;;;;;4963799;28;20019;-80
2022/02/08 03:00:08;;;;;;;57.60;51.60;;;;;;;;;;4958104;28;20024;-80
2022/02/08 03:02:43;;;;;;;62.60;52.92;;;;;;;;;;4953384;28;20158;-79
2022/02/08 03:05:24;;;;;;;62.40;54.10;;;;;;;;;;4958467;28;20023;-79
2022/02/08 03:17:34;;;;;;;63.33;53.70;;;;;;;;;;4938498;29;20035;-78
2022/02/08 03:19:20;;;;;;;59.85;53.45;;;;;;;;;;4957443;29;20519;-79
2022/02/08 03:21:45;;;;;;;67.83;57.10;;;;;;;;;;4952899;28;20035;-77
2022/02/08 03:24:10;;;;;;;61.40;52.80;;;;;;;;;;4954842;28;20031;-78
2022/02/08 03:26:36;;;;;;;60.70;53.70;;;;;;;;;;4954375;28;20038;-79
2022/02/08 03:29:01;;;;;;;59.27;52.90;;;;;;;;;;4955900;28;20035;-78
2022/02/08 03:31:26;;;;;;;66.53;55.93;;;;;;;;;;4953075;28;20540;-76
2022/02/08 03:33:51;;;;;;;62.27;53.27;;;;;;;;;;4950621;28;20461;-80
2022/02/08 03:36:17;;;;;;;62.17;54.80;;;;;;;;;;4957146;28;20054;-77
2022/02/08 03:38:46;;;;;;;73.67;56.20;;;;;;;;;;4957524;28;20019;-78
2022/02/08 03:41:11;;;;;;;61.25;54.65;;;;;;;;;;4956618;28;20031;-76
2022/02/08 03:43:40;;;;;;;60.13;53.63;;;;;;;;;;4949615;28;20540;-78
2022/02/08 03:46:13;;;;;;;61.97;54.83;;;;;;;;;;4956455;28;20278;-77
2022/02/08 03:48:40;;;;;;;64.85;54.40;;;;;;;;;;4957001;28;20024;-79
2022/02/08 03:51:16;;;;;;;71.35;56.20;;;;;;;;;;4953390;28;20027;-79
2022/02/08 03:53:43;;;;;;;62.20;55.40;;;;;;;;;;4950970;28;20053;-78
2022/02/08 03:56:09;;;;;;;62.88;54.40;;;;;;;;;;4954919;29;20047;-79
2022/02/08 03:58:34;;;;;;;63.10;53.88;;;;;;;;;;4957336;28;20023;-79
2022/02/08 04:01:34;;;;;;;71.50;56.53;;;;;;;;;;4952982;28;20180;-78
2022/02/08 04:04:14;;;;;;;70.18;58.70;;;;;;;;;;4953306;28;20484;-80
2022/02/08 04:06:33;;;;;;;66.97;56.08;;;;;;;;;;4950728;28;20019;-79
2022/02/08 04:08:59;;;;;;;65.07;56.00;;;;;;;;;;4951686;28;20019;-79
2022/02/08 04:11:25;;;;;;;;;;;;;;;;;;4953846;28;20441;-78
2022/02/08 04:14:13;;;;;;;63.42;56.55;;;;;;;;;;4946444;28;19919;-79
2022/02/08 04:16:39;;;;;;;67.70;57.90;;;;;;;;;;4949760;28;20492;-82
2022/02/08 04:33:02;;;;;;;77.30;59.45;;;;;;;;;;4946394;28;20511;-79
2022/02/08 04:35:42;;;;;;;68.40;58.78;;;;;;;;;;4953457;28;20034;-78
2022/02/08 04:38:40;;;;;;;72.20;58.88;;;;;;;;;;4954497;28;20012;-78
2022/02/08 04:40:58;;;;;;;70.97;59.22;;;;;;;;;;4955346;28;20035;-78
2022/02/08 04:44:32;;;;;;;74.57;59.13;;;;;;;;;;4950171;28;20012;-78
2022/02/08 04:47:09;;;;;;;64.10;56.40;;;;;;;;;;4940349;28;20094;-78
2022/02/08 04:49:06;;;;;;;73.28;59.63;;;;;;;;;;4947365;29;20134;-78
2022/02/08 04:51:43;;;;;;;70.23;59.50;;;;;;;;;;4949841;28;20051;-79
2022/02/08 04:57:19;;;;;;;70.45;57.90;;;;;;;;;;4952267;28;19917;-78
2022/02/08 05:34:51;;;;;;;75.93;60.17;;;;;;;;;;4955173;29;20103;-80
2022/02/08 05:47:44;;;;;;;73.85;59.58;;;;;;;;;;4953176;28;20024;-77
2022/02/08 05:50:23;;;;;;;79.43;60.47;;;;;;;;;;4956038;28;20023;-78
2022/02/08 05:53:02;;;;;;;88.80;67.15;;;;;;;;;;4944873;28;20048;-78
2022/02/08 05:55:27;;;;;;;80.00;61.60;;;;;;;;;;4954594;28;20110;-78
2022/02/08 05:57:53;;;;;;;76.82;60.95;;;;;;;;;;4954140;28;20429;-78
2022/02/08 06:00:19;;;;;;;86.77;61.70;;;;;;;;;;4952124;28;20058;-79
2022/02/08 06:02:44;;;;;;;85.57;64.78;;;;;;;;;;4951446;28;20077;-78
2022/02/08 06:05:15;;;;;;;79.47;60.77;;;;;;;;;;4956957;28;20023;-80
2022/02/08 06:07:40;;;;;;;86.88;62.80;;;;;;;;;;4955025;29;20056;-77
2022/02/08 06:10:06;;;;;;;78.57;61.93;;;;;;;;;;4955529;28;20035;-80
2022/02/08 06:12:31;;;;;;;85.20;62.27;;;;;;;;;;4950919;28;20431;-79
2022/02/08 06:15:04;;;;;;;80.87;64.57;;;;;;;;;;4954594;29;20031;-79
2022/02/08 06:17:30;;;;;;;77.38;59.70;;;;;;;;;;4953892;28;20024;-80
2022/02/08 06:19:56;;;;;;;83.47;61.00;;;;;;;;;;4957604;28;20030;-79
2022/02/08 06:22:22;;;;;;;79.60;63.33;;;;;;;;;;4947277;28;20024;-83
2022/02/08 06:24:47;;;;;;;83.60;62.85;;;;;;;;;;4955331;28;20023;-83
2022/02/08 06:27:12;;;;;;;94.93;64.77;;;;;;;;;;4963460;28;20046;-79
2022/02/08 06:29:38;;;;;;;76.37;59.30;;;;;;;;;;4960241;28;20041;-80
2022/02/08 06:32:03;;;;;;;83.07;62.37;;;;;;;;;;4970035;28;20051;-80
2022/02/08 06:34:31;;;;;;;78.17;62.00;;;;;;;;;;4967444;28;20028;-78
2022/02/08 06:37:03;;;;;;;92.95;68.00;;;;;;;;;;4966118;28;20015;-83
2022/02/08 06:39:33;;;;;;;80.07;61.80;;;;;;;;;;4969540;28;20023;-81
2022/02/08 06:41:58;;;;;;;95.70;67.53;;;;;;;;;;4964677;28;20055;-79
2022/02/08 06:44:23;;;;;;;80.17;62.90;;;;;;;;;;4966588;28;20019;-81
2022/02/08 06:46:49;;;;;;;84.97;63.17;;;;;;;;;;4954328;29;20023;-81
2022/02/08 06:49:14;;;;;;;76.97;61.27;;;;;;;;;;4954164;28;20055;-83
2022/02/08 06:51:39;;;;;;;91.17;64.30;;;;;;;;;;4957900;28;20034;-79
2022/02/08 06:54:05;;;;;;;81.90;65.67;;;;;;;;;;4956053;28;20043;-84
2022/02/08 06:56:31;;;;;;;82.37;61.90;;;;;;;;;;4959963;28;20031;-81
2022/02/08 06:59:03;;;;;;;79.72;61.05;;;;;;;;;;4957189;28;20015;-82
2022/02/08 07:01:32;;;;;;;94.32;64.97;;;;;;;;;;4956512;28;20489;-81
2022/02/08 07:03:58;;;;;;;84.82;66.32;;;;;;;;;;4957574;28;20043;-80
2022/02/08 07:06:23;;;;;;;83.23;63.63;;;;;;;;;;4956443;28;20023;-81
2022/02/08 07:08:49;;;;;;;91.10;62.13;;;;;;;;;;4960494;28;20016;-79
2022/02/08 07:11:16;;;;;;;81.43;62.13;;;;;;;;;;4956405;28;20050;-80
2022/02/08 07:13:43;;;;;;;85.63;62.80;;;;;;;;;;4954891;28;20269;-80
2022/02/08 07:16:09;;;;;;;89.38;65.50;;;;;;;;;;4960559;28;20019;-80
2022/02/08 07:18:34;;;;;;;78.10;61.25;;;;;;;;;;4966589;28;20047;-79
2022/02/08 07:20:59;;;;;;;91.67;64.20;;;;;;;;;;4964411;28;20027;-79
2022/02/08 07:23:24;;;;;;;81.63;62.20;;;;;;;;;;4960849;28;20099;-80
2022/02/08 07:25:52;;;;;;;80.67;62.40;;;;;;;;;;4964276;29;20073;-80
2022/02/08 07:28:17;;;;;;;81.13;63.50;;;;;;;;;;4963261;28;20030;-80
2022/02/08 07:30:43;;;;;;;85.93;63.30;;;;;;;;;;4956395;28;20398;-79
2022/02/08 07:33:08;;;;;;;83.82;63.38;;;;;;;;;;4955953;28;20027;-80
2022/02/08 07:35:48;;;;;;;78.77;63.27;;;;;;;;;;4960721;28;20027;-80
2022/02/08 07:38:23;;;;;;;88.70;64.68;;;;;;;;;;4957427;28;20103;-79
2022/02/08 07:43:17;;;;;;;86.55;64.93;;;;;;;;;;4952283;28;20023;-80
2022/02/08 07:45:42;;;;;;;91.03;65.88;;;;;;;;;;4954332;29;20050;-78
2022/02/08 07:48:07;;;;;;;89.87;64.07;;;;;;;;;;4957071;28;20031;-79
2022/02/08 07:50:38;;;;;;;92.60;69.70;;;;;;;;;;4957030;28;20054;-79
2022/02/08 07:53:03;;;;;;;94.72;66.63;;;;;;;;;;4948417;28;20027;-79
2022/02/08 07:55:28;;;;;;;90.17;64.50;;;;;;;;;;4949171;28;20478;-77
2022/02/08 07:57:54;;;;;;;87.37;65.83;;;;;;;;;;4955691;28;20143;-78
2022/02/08 08:00:20;;;;;;;117.20;71.75;;;;;;;;;;4954608;28;20026;-78
2022/02/08 08:02:45;;;;;;;109.43;69.43;;;;;;;;;;4948406;28;20609;-78
2022/02/08 08:05:10;;;;;;;84.53;63.50;;;;;;;;;;4956713;28;20016;-79
2022/02/08 08:07:36;;;;;;;98.93;67.03;;;;;;;;;;4953438;29;20102;-79
2022/02/08 08:10:06;;;;;;;87.23;65.70;;;;;;;;;;4953453;28;20053;-79
2022/02/08 08:12:34;;;;;;;96.15;63.97;;;;;;;;;;4953781;28;20049;-78
2022/02/08 08:15:05;;;;;;;94.70;66.95;;;;;;;;;;4952490;28;20386;-77
2022/02/08 08:17:52;;;;;;;103.88;67.28;;;;;;;;;;4950159;28;20027;-78
2022/02/08 08:20:17;;;;;;;90.97;65.97;;;;;;;;;;4955851;28;20058;-79
2022/02/08 08:22:43;;;;;;;110.30;66.97;;;;;;;;;;4953181;28;20030;-79
2022/02/08 08:25:08;;;;;;;91.40;64.00;;;;;;;;;;4987290;23;20035;-84
2022/02/08 08:27:33;;;;;;;79.17;59.83;;;;;;;;;;4977457;28;20078;-83
2022/02/08 08:29:59;;;;;;;90.70;65.17;;;;;;;;;;4990045;28;20030;-83
2022/02/08 08:32:24;;;;;;;86.33;63.73;;;;;;;;;;4992822;28;20051;-85
2022/02/08 08:34:49;;;;;;;87.93;64.77;;;;;;;;;;4997761;23;20497;-77
2022/02/08 08:37:14;;;;;;;94.47;66.80;;;;;;;;;;4989358;28;20034;-79
2022/02/08 08:39:46;;;;;;;88.07;63.57;;;;;;;;;;4973440;28;20057;-79
2022/02/08 08:44:53;;;;;;;95.28;65.88;;;;;;;;;;4958897;28;20042;-77
2022/02/08 08:52:35;;;;;;;90.13;62.30;;;;;;;;;;4970110;29;20027;-76
2022/02/08 08:55:00;;;;;;;93.93;63.80;;;;;;;;;;4971138;29;20011;-76
2022/02/08 08:57:26;;;;;;;185.02;93.60;;;;;;;;;;4964093;28;20229;-75
2022/02/08 08:59:52;;;;;;;81.63;61.63;;;;;;;;;;4980513;28;20023;-74
2022/02/08 09:02:17;;;;;;;77.53;59.87;;;;;;;;;;4951089;28;20023;-77
2022/02/08 09:04:44;;;;;;;82.00;62.97;;;;;;;;;;4964734;29;20063;-76
2022/02/08 09:07:09;;;;;;;76.05;60.60;;;;;;;;;;4960769;28;20520;-77
2022/02/08 09:09:38;;;;;;;82.97;60.97;;;;;;;;;;4964524;29;20062;-78
2022/02/08 09:12:21;;;;;;;73.32;59.70;;;;;;;;;;4965625;28;20519;-78
2022/02/08 09:15:53;;;;;;;77.97;59.40;;;;;;;;;;4956539;29;20019;-78
2022/02/08 09:23:35;;;;;;;81.47;59.38;;;;;;;;;;4957049;29;20035;-77
2022/02/08 09:26:11;;;;;;;74.18;59.65;;;;;;;;;;4952115;28;20026;-80
2022/02/08 09:31:04;;;;;;;77.77;60.00;;;;;;;;;;4958431;29;20023;-77
2022/02/08 09:33:30;;;;;;;69.95;58.38;;;;;;;;;;4958148;28;20111;-80
2022/02/08 09:35:55;;;;;;;70.00;57.40;;;;;;;;;;4954486;28;20066;-78
2022/02/08 09:38:21;;;;;;;69.87;58.80;;;;;;;;;;4961144;29;20007;-79
2022/02/08 09:41:08;;;;;;;68.90;58.17;;;;;;;;;;4959652;28;20277;-79
2022/02/08 09:43:33;;;;;;;67.57;56.13;;;;;;;;;;4956382;29;20122;-77
2022/02/08 09:45:59;;;;;;;74.80;58.60;;;;;;;;;;4966951;28;20063;-78
2022/02/08 09:48:46;;;;;;;65.00;57.13;;;;;;;;;;4970430;28;20019;-77
2022/02/08 09:51:12;;;;;;;65.97;57.90;;;;;;;;;;4970389;28;20077;-78
2022/02/08 09:53:42;;;;;;;65.03;57.63;;;;;;;;;;4978457;28;20480;-78
2022/02/08 09:56:08;;;;;;;67.75;56.00;;;;;;;;;;4966286;28;20055;-75
2022/02/08 09:58:33;;;;;;;62.05;55.28;;;;;;;;;;4961098;29;20087;-76
2022/02/08 10:01:21;;;;;;;73.57;58.33;;;;;;;;;;4979611;28;20055;-77
2022/02/08 10:03:57;;;;;;;67.18;56.58;;;;;;;;;;4952541;29;20077;-78
2022/02/08 10:06:26;;;;;;;68.55;57.97;;;;;;;;;;4976845;28;20087;-77
2022/02/08 10:09:03;;;;;;;69.38;56.90;;;;;;;;;;4962188;28;20125;-77
2022/02/08 10:11:55;;;;;;;61.88;55.92;;;;;;;;;;4965364;28;20474;-77
2022/02/08 10:22:30;;;;;;;61.33;54.70;;;;;;;;;;4959444;29;20170;-76
2022/02/08 10:24:59;;;;;;;62.17;55.30;;;;;;;;;;4960618;28;20173;-77
2022/02/08 10:27:40;;;;;;;63.08;54.90;;;;;;;;;;4957389;28;20027;-78
2022/02/08 10:30:31;;;;;;;62.80;54.30;;;;;;;;;;4956350;29;20023;-76
2022/02/08 10:38:24;;;;;;;65.43;53.58;;;;;;;;;;4960101;28;20018;-76
2022/02/08 10:41:13;;;;;;;65.83;54.53;;;;;;;;;;4965616;28;20031;-80
2022/02/08 10:43:39;;;;;;;61.53;54.42;;;;;;;;;;4952236;28;20540;-77
2022/02/08 10:46:04;;;;;;;64.05;53.63;;;;;;;;;;4957140;28;20023;-77
2022/02/08 10:48:29;;;;;;;57.77;51.53;;;;;;;;;;4958276;29;20025;-78
2022/02/08 10:50:57;;;;;;;60.27;53.87;;;;;;;;;;4974674;28;20030;-78
2022/02/08 10:53:26;;;;;;;60.63;54.05;;;;;;;;;;4958934;28;20026;-77
2022/02/08 10:55:59;;;;;;;59.58;53.45;;;;;;;;;;4957873;28;20027;-78
2022/02/08 10:58:33;;;;;;;62.45;53.92;;;;;;;;;;4958575;28;20133;-78
2022/02/08 11:03:36;;;;;;;59.22;52.95;;;;;;;;;;4961600;28;20343;-77
2022/02/08 11:06:18;;;;;;;61.55;54.40;;;;;;;;;;4954249;28;20019;-78
2022/02/08 11:12:10;;;;;;;64.60;54.50;;;;;;;;;;4950970;29;20064;-75
2022/02/08 11:15:02;;;;;;;64.18;55.67;;;;;;;;;;4972575;28;20027;-75
2022/02/08 11:22:56;;;;;;;64.22;55.08;;;;;;;;;;4977602;28;20043;-77
2022/02/08 11:27:54;;;;;;;72.97;54.58;;;;;;;;;;4968508;28;20339;-77
2022/02/08 11:30:52;;;;;;;59.70;53.40;;;;;;;;;;4963754;28;20016;-78
2022/02/08 11:50:04;;;;;;;60.28;53.97;;;;;;;;;;4961818;29;20046;-78
2022/02/08 12:00:22;;;;;;;63.67;55.60;;;;;;;;;;4974167;28;20023;-76
2022/02/08 12:06:03;;;;;;;68.38;54.72;;;;;;;;;;4961309;28;20025;-77
2022/02/08 12:08:24;;;;;;;60.20;54.13;;;;;;;;;;4976766;28;20038;-76
2022/02/08 12:11:06;;;;;;;60.40;53.70;;;;;;;;;;4991121;28;20046;-77
2022/02/08 12:13:57;;;;;;;58.40;52.35;;;;;;;;;;4991635;28;20077;-76
2022/02/08 12:33:26;;;;;;;59.42;53.22;;;;;;;;;;4946687;29;20066;-78
2022/02/08 12:50:24;;;;;;;59.50;53.28;;;;;;;;;;4959709;28;20047;-78
2022/02/08 12:55:41;;;;;;;61.03;53.13;;;;;;;;;;4955841;28;20441;-77
2022/02/08 13:00:58;;;;;;;57.90;51.63;;;;;;;;;;4958921;29;20026;-80
2022/02/08 13:03:56;;;;;;;59.70;53.15;;;;;;;;;;4971082;28;20023;-78
2022/02/08 13:20:11;;;;;;;58.60;52.80;;;;;;;;;;4957692;29;20401;-78
2022/02/08 14:09:44;;;;;;;57.92;51.90;;;;;;;;;;4956001;29;20023;-79
2022/02/08 14:14:52;;;;;;;57.97;51.90;;;;;;;;;;4960029;29;20492;-78
2022/02/08 14:23:07;;;;;;;60.40;53.78;;;;;;;;;;4962978;29;20041;-77
2022/02/08 14:25:50;;;;;;;56.25;50.67;;;;;;;;;;4974713;28;20020;-78
2022/02/08 14:31:55;;;;;;;56.13;50.53;;;;;;;;;;4959714;29;20030;-78
2022/02/08 15:09:21;;;;;;;54.38;49.33;;;;;;;;;;4985519;28;20030;-86
2022/02/08 15:12:00;;;;;;;54.95;49.65;;;;;;;;;;4998448;28;20022;-88
2022/02/08 15:14:28;;;;;;;54.53;49.50;;;;;;;;;;4982130;28;20095;-86
2022/02/08 15:16:53;;;;;;;54.05;48.95;;;;;;;;;;4991337;28;20029;-86
2022/02/08 15:19:18;;;;;;;55.00;49.77;;;;;;;;;;4999788;28;20031;-88
2022/02/08 15:21:43;;;;;;;54.43;49.37;;;;;;;;;;4993603;28;20026;-88
2022/02/08 15:24:10;;;;;;;55.70;50.17;;;;;;;;;;4986833;28;20026;-85
2022/02/08 15:26:36;;;;;;;100.35;60.33;;;;;;;;;;4985039;28;20064;-85
2022/02/08 15:29:04;;;;;;;59.17;51.78;;;;;;;;;;4982526;28;20030;-87
2022/02/08 15:31:29;;;;;;;62.20;52.40;;;;;;;;;;4991876;28;20015;-90
2022/02/08 15:33:56;;;;;;;58.07;51.97;;;;;;;;;;4998134;28;20030;-89
2022/02/08 15:36:22;;;;;;;54.55;49.38;;;;;;;;;;4990872;28;20019;-87
2022/02/08 15:38:51;;;;;;;55.70;50.33;;;;;;;;;;4982708;28;20014;-88
2022/02/08 15:41:17;;;;;;;54.97;49.60;;;;;;;;;;4981632;28;20026;-88
2022/02/08 15:43:42;;;;;;;55.90;50.22;;;;;;;;;;4987045;28;20079;-89
2022/02/08 15:46:30;;;;;;;56.17;50.63;;;;;;;;;;4987863;28;20534;-87
2022/02/08 15:48:55;;;;;;;55.47;49.97;;;;;;;;;;4985530;28;20094;-88
2022/02/08 15:51:35;;;;;;;54.50;49.40;;;;;;;;;;4980956;28;20023;-89
2022/02/08 15:54:20;;;;;;;56.03;50.42;;;;;;;;;;4971107;28;20045;-87
2022/02/08 16:07:57;;;;;;;56.25;50.70;;;;;;;;;;4977970;28;20062;-87
2022/02/08 16:10:38;;;;;;;57.65;51.85;;;;;;;;;;4976073;28;20020;-87
2022/02/08 16:13:21;;;;;;;54.63;49.53;;;;;;;;;;4971220;28;20019;-87
2022/02/08 16:18:35;;;;;;;57.13;51.10;;;;;;;;;;4987677;28;20046;-87
2022/02/08 16:24:05;;;;;;;57.10;51.03;;;;;;;;;;4975026;28;20030;-86
2022/02/08 16:26:44;;;;;;;56.10;50.53;;;;;;;;;;4984691;28;20042;-86
2022/02/08 16:29:31;;;;;;;56.05;50.40;;;;;;;;;;4988776;28;20026;-85
2022/02/08 16:46:06;;;;;;;56.35;50.70;;;;;;;;;;4981669;28;20019;-84
2022/02/08 16:49:02;;;;;;;56.45;50.95;;;;;;;;;;4961750;29;20062;-84
2022/02/08 16:54:15;;;;;;;55.50;50.20;;;;;;;;;;4982550;28;20033;-85
2022/02/08 16:56:55;;;;;;;56.85;51.05;;;;;;;;;;4979799;28;20498;-85
2022/02/08 16:59:28;;;;;;;56.17;50.65;;;;;;;;;;4978302;28;20499;-85
2022/02/08 17:01:56;;;;;;;55.80;50.20;;;;;;;;;;4973419;28;20284;-85
2022/02/08 17:04:21;;;;;;;57.33;51.20;;;;;;;;;;4977860;28;20019;-84
2022/02/08 17:06:46;;;;;;;55.63;50.13;;;;;;;;;;4979305;28;20503;-85
2022/02/08 17:09:17;;;;;;;57.10;51.43;;;;;;;;;;4977183;28;20129;-85
2022/02/08 17:47:03;;;;;;;56.33;50.58;;;;;;;;;;4974526;28;20085;-85
2022/02/08 17:49:28;;;;;;;55.80;50.35;;;;;;;;;;4974576;28;20030;-82
2022/02/08 17:51:53;;;;;;;55.37;50.17;;;;;;;;;;4983360;28;20050;-83
2022/02/08 17:54:19;;;;;;;55.63;50.30;;;;;;;;;;4988267;28;20054;-85
2022/02/08 17:56:45;;;;;;;55.63;50.40;;;;;;;;;;4987375;28;20029;-84
2022/02/08 17:59:10;;;;;;;55.53;50.33;;;;;;;;;;4987760;28;20058;-84
2022/02/08 18:01:35;;;;;;;55.53;50.17;;;;;;;;;;4983806;28;20027;-83
2022/02/08 18:04:01;;;;;;;58.07;52.07;;;;;;;;;;4980229;28;20035;-84
2022/02/08 18:06:26;;;;;;;55.70;50.27;;;;;;;;;;4980641;28;20095;-85
2022/02/08 18:08:51;;;;;;;82.60;58.77;;;;;;;;;;4974282;28;20085;-86
2022/02/08 18:11:16;;;;;;;55.10;49.70;;;;;;;;;;4991842;28;20125;-85
2022/02/08 18:13:44;;;;;;;56.80;51.03;;;;;;;;;;4979703;28;20049;-85
2022/02/08 18:16:09;;;;;;;55.50;50.22;;;;;;;;;;4997677;28;20098;-85
2022/02/08 18:18:42;;;;;;;56.17;50.50;;;;;;;;;;4978429;28;20050;-85
2022/02/08 18:21:18;;;;;;;54.25;49.20;;;;;;;;;;4979842;28;20018;-85
2022/02/08 18:50:22;;;;;;;55.38;50.10;;;;;;;;;;4977939;28;20528;-84
2022/02/08 19:05:31;;;;;;;56.40;50.92;;;;;;;;;;4981853;28;20037;-84
2022/02/08 19:07:20;;;;;;;55.97;50.45;;;;;;;;;;4982416;28;20372;-84
2022/02/08 19:12:55;;;;;;;56.40;50.88;;;;;;;;;;4975303;28;20030;-84
2022/02/08 19:16:18;;;;;;;55.63;50.33;;;;;;;;;;4985551;28;20041;-86
2022/02/08 19:18:34;;;;;;;55.92;50.50;;;;;;;;;;4983834;28;20037;-85
2022/02/08 19:23:33;;;;;;;57.15;51.38;;;;;;;;;;4990093;28;20050;-83
2022/02/08 19:26:00;;;;;;;55.03;49.83;;;;;;;;;;4981603;28;20158;-85
2022/02/08 19:28:25;;;;;;;56.53;50.83;;;;;;;;;;4985592;28;20046;-84
2022/02/08 19:30:52;;;;;;;55.80;50.38;;;;;;;;;;4999965;28;20026;-85
2022/02/08 19:33:17;;;;;;;56.05;50.78;;;;;;;;;;4987864;28;20007;-84
2022/02/08 19:35:43;;;;;;;56.83;51.17;;;;;;;;;;5004388;28;20030;-84
2022/02/08 19:38:11;;;;;;;56.03;50.63;;;;;;;;;;5003700;28;20015;-86
2022/02/08 19:40:36;;;;;;;57.00;51.38;;;;;;;;;;4995867;28;20030;-85
2022/02/08 19:43:01;;;;;;;56.00;50.70;;;;;;;;;;5000377;28;20042;-85
2022/02/08 19:45:29;;;;;;;57.83;52.23;;;;;;;;;;4999620;28;20042;-84
2022/02/08 19:47:54;;;;;;;57.75;51.95;;;;;;;;;;5000023;28;20049;-85
2022/02/08 19:50:19;;;;;;;57.40;51.73;;;;;;;;;;4987864;28;20157;-85
2022/02/08 19:52:45;;;;;;;58.50;52.60;;;;;;;;;;4988825;28;20139;-83
2022/02/08 19:57:47;;;;;;;59.10;53.00;;;;;;;;;;4988930;28;20018;-83
2022/02/08 20:00:17;;;;;;;62.50;55.22;;;;;;;;;;4989579;28;20041;-89
2022/02/08 20:02:48;;;;;;;58.95;52.90;;;;;;;;;;4995250;28;20025;-89
2022/02/08 20:05:15;;;;;;;56.55;51.17;;;;;;;;;;4990509;28;20014;-89
2022/02/08 20:07:41;;;;;;;57.30;51.60;;;;;;;;;;4985690;28;20018;-90
2022/02/08 20:10:06;;;;;;;57.27;51.70;;;;;;;;;;4981620;28;20039;-87
2022/02/08 20:12:31;;;;;;;58.33;52.67;;;;;;;;;;4983650;28;20394;-86
2022/02/08 20:14:57;;;;;;;57.17;51.60;;;;;;;;;;5002617;28;20107;-86
2022/02/08 20:17:22;;;;;;;58.17;52.45;;;;;;;;;;4985579;28;20023;-87
2022/02/08 20:19:47;;;;;;;57.43;51.70;;;;;;;;;;4981936;28;20023;-86
2022/02/08 20:22:14;;;;;;;58.70;52.67;;;;;;;;;;4981800;28;20019;-87
2022/02/08 20:24:39;;;;;;;59.47;53.45;;;;;;;;;;4981194;28;20054;-85
2022/02/08 20:29:39;;;;;;;58.88;52.88;;;;;;;;;;4985419;28;20154;-88
2022/02/08 20:32:04;;;;;;;57.43;51.80;;;;;;;;;;4983970;28;20027;-86
2022/02/08 20:34:30;;;;;;;58.43;52.67;;;;;;;;;;4982144;28;20023;-85
2022/02/08 20:36:58;;;;;;;58.78;52.92;;;;;;;;;;4980394;28;20019;-86
2022/02/08 20:39:23;;;;;;;58.25;52.45;;;;;;;;;;4980819;28;20018;-86
2022/02/08 20:41:48;;;;;;;56.93;51.53;;;;;;;;;;4982646;28;20042;-86
2022/02/08 20:44:16;;;;;;;58.03;52.27;;;;;;;;;;4983913;28;20022;-86
2022/02/08 20:46:49;;;;;;;57.35;51.92;;;;;;;;;;4981387;28;20050;-87
2022/02/08 20:49:14;;;;;;;60.08;53.95;;;;;;;;;;5037761;23;20133;-77
2022/02/08 20:51:43;;;;;;;59.43;53.30;;;;;;;;;;4974254;28;20046;-76
2022/02/08 20:54:08;;;;;;;61.58;54.97;;;;;;;;;;4978579;28;20473;-77
2022/02/08 20:56:35;;;;;;;63.00;55.80;;;;;;;;;;4978941;28;20023;-77
2022/02/08 21:01:35;;;;;;;59.60;53.67;;;;;;;;;;4981645;28;20026;-75
2022/02/08 21:04:13;;;;;;;59.50;53.42;;;;;;;;;;4975426;28;20074;-77
2022/02/08 21:06:39;;;;;;;60.45;54.15;;;;;;;;;;5000371;28;20096;-76
2022/02/08 21:09:05;;;;;;;63.20;56.30;;;;;;;;;;4979979;28;20397;-80
2022/02/08 21:11:36;;;;;;;59.65;53.55;;;;;;;;;;4979005;28;20167;-77
2022/02/08 21:14:05;;;;;;;59.00;53.05;;;;;;;;;;4984523;28;20025;-76
2022/02/08 21:16:39;;;;;;;68.00;57.13;;;;;;;;;;4992695;28;20046;-78
2022/02/08 21:19:05;;;;;;;60.33;53.88;;;;;;;;;;4974921;28;20039;-76
2022/02/08 21:21:30;;;;;;;65.57;56.90;;;;;;;;;;4968081;28;20031;-78
2022/02/08 21:23:57;;;;;;;61.90;55.27;;;;;;;;;;4970868;28;20109;-78
2022/02/08 21:26:26;;;;;;;60.97;54.45;;;;;;;;;;4976668;28;20037;-77
2022/02/08 21:52:54;;;;;;;61.65;55.00;;;;;;;;;;4977073;28;20088;-78
2022/02/08 21:55:20;;;;;;;61.17;54.47;;;;;;;;;;4985784;28;20025;-78
2022/02/08 21:57:53;;;;;;;60.60;54.40;;;;;;;;;;4995036;28;20043;-78